createdAt,value
2023-02-09T00:01:35.086Z,31.47
2023-02-09T00:05:37.266Z,26.25
2023-02-09T00:09:38.838Z,31.40
2023-02-09T00:13:40.673Z,30.13
2023-02-09T00:17:42.530Z,33.40
2023-02-09T00:21:44.167Z,26.23
2023-02-09T00:25:45.657Z,27.52
2023-02-09T00:29:47.125Z,26.38
2023-02-09T00:33:48.811Z,27.65
2023-02-09T00:37:50.490Z,23.90
2023-02-09T00:42:07.087Z,31.33
2023-02-09T00:46:09.357Z,27.60
2023-02-09T00:50:11.310Z,24.48
2023-02-09T00:54:13.644Z,25.98
2023-02-09T00:58:15.128Z,27.88
2023-02-09T01:02:16.869Z,30.48
2023-02-09T01:06:18.643Z,24.05
2023-02-09T01:10:20.170Z,28.20
2023-02-09T01:14:21.960Z,25.05
2023-02-09T01:18:23.797Z,23.27
2023-02-09T01:22:25.501Z,28.20
2023-02-09T01:26:27.314Z,25.98
2023-02-09T01:30:29.139Z,23.98
2023-02-09T01:34:30.700Z,22.60
2023-02-09T01:38:32.812Z,24.70
2023-02-09T01:42:34.340Z,26.35
2023-02-09T01:46:36.689Z,25.38
2023-02-09T01:50:42.098Z,24.08
2023-02-09T01:54:51.056Z,26.25
2023-02-09T01:58:52.673Z,22.23
2023-02-09T02:03:02.313Z,26.27
2023-02-09T02:07:29.798Z,24.20
2023-02-09T02:11:33.177Z,22.20
2023-02-09T02:15:48.506Z,24.95
2023-02-09T02:20:19.240Z,25.55
2023-02-09T02:24:20.794Z,25.60
2023-02-09T02:28:43.209Z,27.40
2023-02-09T02:33:02.037Z,21.95
2023-02-09T02:37:18.556Z,28.95
2023-02-09T02:42:01.919Z,26.23
2023-02-09T02:46:45.559Z,27.80
2023-02-09T02:50:53.858Z,24.77
2023-02-09T02:55:11.149Z,27.02
2023-02-09T02:59:21.660Z,27.60
2023-02-09T03:03:27.813Z,27.50
2023-02-09T03:07:29.411Z,23.10
2023-02-09T03:11:35.630Z,30.90
2023-02-09T03:15:53.424Z,26.70
2023-02-09T03:20:08.859Z,23.42
2023-02-09T03:24:17.344Z,26.75
2023-02-09T03:28:23.873Z,28.67
2023-02-09T03:32:26.476Z,25.60
2023-02-09T03:36:33.475Z,28.88
2023-02-09T03:44:37.108Z,29.98
2023-02-09T03:48:38.884Z,29.17
2023-02-09T03:52:40.628Z,27.77
2023-02-09T03:56:42.105Z,30.00
2023-02-09T04:00:44.398Z,30.10
2023-02-09T04:04:46.123Z,27.73
2023-02-09T04:08:47.786Z,26.60
2023-02-09T04:12:49.520Z,31.27
2023-02-09T04:16:51.255Z,27.85
2023-02-09T04:20:52.802Z,31.35
2023-02-09T04:24:54.274Z,27.58
2023-02-09T04:28:56.065Z,28.25
2023-02-09T04:32:57.616Z,31.40
2023-02-09T04:36:59.130Z,33.47
2023-02-09T04:41:01.928Z,30.38
2023-02-09T04:45:05.407Z,34.47
2023-02-09T04:49:06.901Z,30.63
2023-02-09T04:53:08.917Z,28.92
2023-02-09T04:57:29.321Z,46.22
2023-02-09T05:01:31.563Z,74.75
2023-02-09T05:05:33.484Z,40.78
2023-02-09T05:09:34.998Z,30.23
2023-02-09T05:13:37.126Z,28.67
2023-02-09T05:17:39.291Z,29.45
2023-02-09T05:21:46.947Z,30.70
2023-02-09T05:25:59.171Z,30.65
2023-02-09T05:30:00.749Z,30.70
2023-02-09T05:43:32.761Z,28.20
2023-02-09T05:47:34.260Z,25.95
2023-02-09T05:51:35.936Z,32.40
2023-02-09T05:55:38.124Z,28.58
2023-02-09T05:59:39.693Z,31.65
2023-02-09T06:03:41.193Z,32.85
2023-02-09T06:07:42.980Z,27.92
2023-02-09T06:11:44.897Z,32.28
2023-02-09T06:15:46.389Z,30.88
2023-02-09T06:19:48.453Z,31.65
2023-02-09T06:23:50.027Z,31.00
2023-02-09T06:27:51.618Z,35.03
2023-02-09T06:31:53.485Z,31.55
2023-02-09T06:35:56.629Z,32.88
2023-02-09T06:40:02.927Z,32.85
2023-02-09T06:44:09.311Z,35.03
2023-02-09T06:48:10.873Z,38.15
2023-02-09T06:52:12.810Z,37.05
2023-02-09T06:56:14.629Z,35.22
2023-02-09T07:00:16.988Z,36.72
2023-02-09T07:04:18.470Z,38.67
2023-02-09T07:08:20.006Z,35.78
2023-02-09T07:12:21.733Z,42.42
2023-02-09T07:16:23.697Z,32.90
2023-02-09T07:20:25.241Z,32.50
2023-02-09T07:24:27.172Z,35.78
2023-02-09T07:28:28.880Z,35.88
2023-02-09T07:32:30.474Z,32.10
2023-02-09T07:36:31.904Z,39.65
2023-02-09T07:40:33.670Z,40.55
2023-02-09T07:44:35.151Z,40.55
2023-02-09T07:48:37.309Z,39.13
2023-02-09T07:52:38.751Z,40.38
2023-02-09T07:56:41.060Z,41.70
2023-02-09T08:00:42.601Z,35.35
2023-02-09T08:04:44.901Z,44.33
2023-02-09T08:08:47.641Z,45.65
2023-02-09T08:13:02.390Z,41.33
2023-02-09T08:17:24.238Z,39.03
2023-02-09T08:21:26.883Z,38.92
2023-02-09T08:25:28.609Z,38.80
2023-02-09T08:29:30.329Z,42.63
2023-02-09T08:33:31.847Z,46.40
2023-02-09T08:37:33.677Z,39.80
2023-02-09T08:41:35.724Z,38.45
2023-02-09T08:45:40.806Z,40.42
2023-02-09T08:49:42.578Z,42.08
2023-02-09T08:53:50.541Z,42.30
2023-02-09T08:57:53.240Z,42.65
2023-02-09T09:01:54.847Z,41.17
2023-02-09T09:06:01.980Z,41.97
2023-02-09T09:14:04.944Z,43.00
2023-02-09T09:18:06.461Z,40.20
2023-02-09T09:22:08.234Z,41.50
2023-02-09T09:26:09.865Z,37.17
2023-02-09T09:30:12.069Z,36.00
2023-02-09T09:34:13.505Z,44.67
2023-02-09T09:38:15.065Z,39.17
2023-02-09T09:42:23.693Z,42.30
2023-02-09T09:46:35.428Z,39.22
2023-02-09T09:50:40.444Z,40.65
2023-02-09T09:54:42.697Z,38.92
2023-02-09T09:58:45.159Z,38.92
2023-02-09T10:02:47.479Z,43.40
2023-02-09T10:07:01.982Z,44.63
2023-02-09T10:11:10.699Z,39.35
2023-02-09T10:15:22.322Z,39.63
2023-02-09T10:19:26.431Z,42.60
2023-02-09T10:23:42.367Z,39.35
2023-02-09T10:27:47.396Z,41.05
2023-02-09T10:31:56.184Z,39.35
2023-02-09T10:36:03.304Z,39.25
2023-02-09T10:40:12.929Z,39.58
2023-02-09T10:44:16.425Z,35.90
2023-02-09T10:48:19.844Z,36.47
2023-02-09T10:52:24.053Z,34.60
2023-02-09T10:56:34.613Z,32.90
2023-02-09T11:01:01.270Z,34.95
2023-02-09T11:05:09.737Z,35.17
2023-02-09T11:09:16.549Z,35.33
2023-02-09T11:13:23.885Z,29.80
2023-02-09T11:17:41.424Z,30.00
2023-02-09T11:22:01.376Z,32.00
2023-02-09T11:26:21.110Z,32.10
2023-02-09T11:30:32.357Z,31.75
2023-02-09T11:34:55.013Z,34.65
2023-02-09T11:39:00.781Z,32.03
2023-02-09T11:43:11.252Z,31.17
2023-02-09T11:47:20.160Z,37.60
2023-02-09T11:51:25.174Z,40.95
2023-02-09T11:55:46.818Z,31.98
2023-02-09T11:59:57.110Z,27.75
2023-02-09T12:04:01.876Z,31.73
2023-02-09T12:08:12.736Z,41.90
2023-02-09T12:12:14.429Z,31.70
2023-02-09T12:16:25.144Z,31.30
2023-02-09T12:20:47.611Z,30.80
2023-02-09T12:25:23.196Z,34.13
2023-02-09T12:29:45.013Z,24.25
2023-02-09T12:33:46.475Z,24.13
2023-02-09T12:38:09.617Z,25.35
2023-02-09T12:42:27.336Z,26.25
2023-02-09T12:46:29.670Z,23.60
2023-02-09T12:50:42.432Z,34.92
2023-02-09T12:54:53.156Z,31.17
2023-02-09T12:58:57.483Z,32.28
2023-02-09T13:03:08.028Z,34.42
2023-02-09T13:07:22.901Z,37.70
2023-02-09T13:11:38.136Z,31.92
2023-02-09T13:15:55.002Z,36.33
2023-02-09T13:20:14.496Z,27.88
2023-02-09T13:24:33.877Z,28.08
2023-02-09T13:28:35.439Z,33.58
2023-02-09T13:32:46.357Z,28.80
2023-02-09T13:37:03.610Z,28.98
2023-02-09T13:41:05.958Z,32.55
2023-02-09T13:45:17.609Z,33.22
2023-02-09T13:49:22.083Z,31.15
2023-02-09T13:53:26.319Z,36.63
2023-02-09T13:57:30.101Z,29.98
2023-02-09T14:01:33.501Z,28.63
2023-02-09T14:05:43.936Z,31.40
2023-02-09T14:09:51.069Z,30.65
2023-02-09T14:13:58.231Z,32.08
2023-02-09T14:17:59.765Z,27.60
2023-02-09T14:22:01.382Z,29.50
2023-02-09T14:26:06.409Z,34.40
2023-02-09T14:30:16.236Z,31.55
2023-02-09T14:34:36.035Z,31.55
2023-02-09T14:38:39.302Z,30.27
2023-02-09T14:43:09.457Z,32.05
2023-02-09T14:47:45.733Z,30.13
2023-02-09T14:51:48.645Z,34.95
2023-02-09T14:55:50.437Z,33.03
2023-02-09T14:59:52.164Z,28.85
2023-02-09T15:03:53.641Z,29.60
2023-02-09T15:07:59.468Z,28.35
2023-02-09T15:12:07.712Z,31.55
2023-02-09T15:16:09.694Z,34.45
2023-02-09T15:20:16.614Z,35.55
2023-02-09T15:24:18.491Z,32.87
2023-02-09T15:28:28.761Z,34.28
2023-02-09T15:32:30.802Z,38.40
2023-02-09T15:36:32.502Z,33.75
2023-02-09T15:40:55.385Z,31.25
2023-02-09T15:45:16.218Z,34.03
2023-02-09T15:49:18.314Z,36.10
2023-02-09T15:53:21.386Z,33.33
2023-02-09T15:57:41.739Z,44.92
2023-02-09T16:01:43.433Z,37.53
2023-02-09T16:05:47.018Z,35.63
2023-02-09T16:09:48.717Z,35.47
2023-02-09T16:13:50.662Z,36.42
2023-02-09T16:17:52.369Z,29.05
2023-02-09T16:21:56.772Z,33.88
2023-02-09T16:26:01.797Z,36.58
2023-02-09T16:30:15.151Z,34.88
2023-02-09T16:34:16.802Z,35.05
2023-02-09T16:38:20.682Z,31.15
2023-02-09T16:42:22.574Z,32.75
2023-02-09T16:46:24.340Z,31.98
2023-02-09T16:50:50.230Z,33.53
2023-02-09T16:54:55.176Z,32.00
2023-02-09T16:58:56.589Z,36.53
2023-02-09T17:03:03.205Z,38.35
2023-02-09T17:07:04.750Z,33.13
2023-02-09T17:11:06.744Z,35.83
2023-02-09T17:15:27.471Z,37.92
2023-02-09T17:19:42.096Z,32.72
2023-02-09T17:23:49.179Z,35.83
2023-02-09T17:27:50.625Z,60.08
2023-02-09T17:31:53.825Z,68.55
2023-02-09T17:36:25.186Z,43.10
2023-02-09T17:40:21.750Z,42.80
2023-02-09T17:44:45.194Z,37.05
2023-02-09T17:48:48.451Z,35.90
2023-02-09T17:52:51.246Z,40.05
2023-02-09T17:56:53.826Z,38.22
2023-02-09T18:00:56.346Z,41.83
2023-02-09T18:04:57.987Z,35.72
2023-02-09T18:09:01.364Z,35.88
2023-02-09T18:13:02.945Z,40.75
2023-02-09T18:17:04.983Z,41.75
2023-02-09T18:21:12.650Z,37.65
2023-02-09T18:25:25.142Z,38.25
2023-02-09T18:29:29.965Z,36.08
2023-02-09T18:33:33.670Z,40.67
2023-02-09T18:37:35.178Z,36.65
2023-02-09T18:41:38.570Z,38.72
2023-02-09T18:45:41.612Z,44.20
2023-02-09T18:49:43.878Z,36.80
2023-02-09T18:53:45.899Z,35.13
2023-02-09T18:57:47.702Z,40.88
2023-02-09T19:01:50.499Z,38.15
2023-02-09T19:05:51.985Z,37.90
2023-02-09T19:09:54.972Z,44.65
2023-02-09T19:14:15.360Z,38.40
2023-02-09T19:18:17.073Z,37.45
2023-02-09T19:22:21.151Z,34.17
2023-02-09T19:30:44.447Z,37.28
2023-02-09T19:40:11.236Z,39.83
2023-02-09T19:44:31.068Z,37.22
2023-02-09T20:05:03.942Z,40.47
2023-02-09T20:19:00.513Z,39.80
2023-02-09T20:23:12.805Z,43.20
2023-02-09T20:27:14.518Z,41.47
2023-02-09T20:31:26.111Z,42.13
2023-02-09T20:35:27.880Z,37.72
2023-02-09T20:39:29.394Z,41.55
2023-02-09T20:43:49.930Z,34.80
2023-02-09T20:47:51.973Z,38.22
2023-02-09T20:51:55.693Z,37.58
2023-02-09T20:55:58.590Z,40.75
2023-02-09T21:00:04.709Z,38.60
2023-02-09T21:04:09.521Z,50.75
2023-02-09T21:08:11.113Z,38.97
2023-02-09T21:12:13.968Z,41.95
2023-02-09T21:16:16.526Z,39.65
2023-02-09T21:20:18.484Z,40.55
2023-02-09T21:24:21.963Z,39.20
2023-02-09T21:28:23.528Z,42.65
2023-02-09T21:32:25.520Z,46.47
2023-02-09T21:36:27.018Z,39.90
2023-02-09T21:40:29.043Z,45.08
2023-02-09T21:44:30.834Z,44.60
2023-02-09T21:48:32.314Z,41.00
2023-02-09T21:52:34.703Z,44.92
2023-02-09T21:56:36.180Z,39.97
2023-02-09T22:00:37.859Z,36.85
2023-02-09T22:04:40.040Z,44.78
2023-02-09T22:08:41.960Z,40.90
2023-02-09T22:12:44.704Z,40.95
2023-02-09T22:16:46.732Z,43.17
2023-02-09T22:20:48.717Z,42.00
2023-02-09T22:24:50.436Z,39.55
2023-02-09T22:28:52.753Z,39.92
2023-02-09T22:32:54.270Z,42.40
2023-02-09T22:36:55.684Z,38.22
2023-02-09T22:41:36.272Z,36.95
2023-02-09T22:45:41.157Z,38.17
2023-02-09T22:49:47.425Z,44.85
2023-02-09T22:53:49.239Z,42.60
2023-02-09T22:57:50.837Z,39.13
2023-02-09T23:01:57.881Z,39.83
2023-02-09T23:06:19.902Z,43.92
2023-02-09T23:10:22.681Z,38.20
2023-02-09T23:14:24.198Z,37.65
2023-02-09T23:18:25.648Z,44.22
2023-02-09T23:22:27.849Z,37.13
2023-02-09T23:26:29.744Z,36.55
2023-02-09T23:30:31.895Z,38.00
2023-02-09T23:34:33.862Z,39.10
2023-02-09T23:38:36.133Z,38.85
2023-02-09T23:42:37.866Z,38.80
2023-02-09T23:46:39.924Z,35.17
2023-02-09T23:50:41.864Z,39.40
2023-02-09T23:54:43.635Z,35.03
2023-02-09T23:58:47.126Z,34.75
